»·PEaware :: N24YG KSNA-KBFL

N24YG :: KSNA-KBFL

FLIGHT INFORMATION

Flight Status: Arrived
Operator: Privately registered:
United States
More flights under this callsign
Pilot: Mike D. (13097)
Aircraft: BEECH AIRCRAFT SUPER KING AIR 350
(B350)
More flights by this aircraft type
Origin: KSNA John Wayne-Orange Co
United States
Destination: KBFL Meadows
United States
More flights between these airports :: More routes between these airports
Route: +MUSEL8 SLI V459 LHS FASTO2
File this flight plan on PilotEdge
Remarks: Happy New Year!
Altitude:
(Current/Filed)
15,000ft
Speed:
(Current/Filed)
309kts
Departed: 01-Jan-18 05:20 PM
Arrived: 01-Jan-18 05:56 PM
Distance/Time
Traveled:
121nm/0:36
Distance/Time
To Go:
Arrived

Flight Plot

Page will automatically refresh every two minutes.

Flight plan parsing failed; only flown route is shown


Map Options




Map Legend


Flown Route
Filed Route
Departure Airport
Arrival Airport
Navaid (VOR, NDB)
Fix

Horizontal Profiles

Position Reports

Time Latitude Longitude Heading Altitude Ground
Speed
01-Jan-18 16:36 33.666481 -117.873008 215 61ft 0kts
01-Jan-18 16:37 33.666479 -117.873010 215 61ft 0kts
01-Jan-18 16:38 33.666477 -117.873012 215 61ft 0kts
01-Jan-18 16:39 33.666475 -117.873014 215 61ft 0kts
01-Jan-18 16:40 33.666473 -117.873016 215 61ft 0kts
01-Jan-18 16:41 33.666470 -117.873018 215 61ft 0kts
01-Jan-18 16:42 33.666468 -117.873020 215 61ft 0kts
01-Jan-18 16:43 33.666466 -117.873021 215 61ft 0kts
01-Jan-18 16:44 33.666465 -117.873023 215 61ft 0kts
01-Jan-18 16:45 33.666463 -117.873024 215 61ft 0kts
01-Jan-18 16:46 33.666461 -117.873026 215 61ft 0kts
01-Jan-18 16:47 33.666460 -117.873027 215 61ft 0kts
01-Jan-18 16:48 33.666458 -117.873028 215 61ft 0kts
01-Jan-18 16:49 33.666457 -117.873030 215 61ft 0kts
01-Jan-18 16:50 33.666455 -117.873031 215 61ft 0kts
01-Jan-18 16:51 33.666453 -117.873033 215 61ft 0kts
01-Jan-18 16:52 33.666451 -117.873034 215 61ft 0kts
01-Jan-18 16:53 33.666449 -117.873036 215 61ft 0kts
01-Jan-18 16:54 33.666447 -117.873038 215 61ft 0kts
01-Jan-18 16:55 33.666444 -117.873040 215 61ft 0kts
01-Jan-18 16:56 33.666442 -117.873042 215 61ft 0kts
01-Jan-18 16:57 33.666439 -117.873045 215 61ft 0kts
01-Jan-18 16:58 33.666437 -117.873047 215 61ft 0kts
01-Jan-18 16:59 33.666434 -117.873049 215 61ft 0kts
01-Jan-18 17:00 33.666432 -117.873051 215 61ft 0kts
01-Jan-18 17:01 33.666429 -117.873053 215 61ft 0kts
01-Jan-18 17:02 33.666427 -117.873056 215 61ft 0kts
01-Jan-18 17:03 33.666424 -117.873058 215 61ft 0kts
01-Jan-18 17:04 33.666422 -117.873060 215 61ft 0kts
01-Jan-18 17:05 33.666419 -117.873062 215 61ft 0kts
01-Jan-18 17:06 33.666416 -117.873064 215 61ft 0kts
01-Jan-18 17:07 33.666414 -117.873066 215 61ft 0kts
01-Jan-18 17:08 33.666411 -117.873069 215 61ft 0kts
01-Jan-18 17:09 33.666409 -117.873071 215 61ft 0kts
01-Jan-18 17:10 33.666407 -117.873073 215 61ft 0kts
01-Jan-18 17:11 33.666404 -117.873075 215 61ft 0kts
01-Jan-18 17:12 33.666402 -117.873077 215 61ft 0kts
01-Jan-18 17:13 33.666399 -117.873079 215 61ft 0kts
01-Jan-18 17:14 33.666397 -117.873081 215 61ft 0kts
01-Jan-18 17:15 33.666394 -117.873083 215 61ft 0kts
01-Jan-18 17:16 33.666392 -117.873086 215 61ft 0kts
01-Jan-18 17:17 33.667169 -117.873008 36 61ft 14kts
01-Jan-18 17:18 33.672462 -117.867787 45 61ft 27kts
01-Jan-18 17:19 33.676876 -117.865371 24 61ft 27kts
01-Jan-18 17:20 33.679696 -117.863801 291 61ft 0kts
01-Jan-18 17:21 33.679698 -117.863806 291 61ft 0kts
01-Jan-18 17:22 33.679699 -117.863811 291 61ft 0kts
01-Jan-18 17:23 33.679701 -117.863815 291 61ft 0kts
01-Jan-18 17:24 33.679702 -117.863820 291 61ft 0kts
01-Jan-18 17:25 33.680203 -117.865958 205 61ft 0kts
01-Jan-18 17:26 33.655766 -117.881189 206 887ft 154kts
01-Jan-18 17:27 33.614564 -117.903267 224 2742ft 198kts
01-Jan-18 17:28 33.615089 -117.959293 284 5927ft 165kts
01-Jan-18 17:29 33.639739 -118.010831 309 8418ft 186kts
01-Jan-18 17:30 33.677231 -118.052747 326 11211ft 185kts
01-Jan-18 17:31 33.725774 -118.069276 354 13896ft 183kts
01-Jan-18 17:32 33.783524 -118.065856 4 15021ft 237kts
01-Jan-18 17:33 33.848861 -118.076651 327 15047ft 256kts
01-Jan-18 17:34 33.909741 -118.127206 331 15001ft 272kts
01-Jan-18 17:35 33.978939 -118.167725 334 15029ft 278kts
01-Jan-18 17:36 34.049058 -118.207800 334 15027ft 280kts
01-Jan-18 17:37 34.119963 -118.248721 334 15029ft 287kts
01-Jan-18 17:38 34.192552 -118.290760 333 15029ft 290kts
01-Jan-18 17:39 34.265321 -118.332994 333 15028ft 290kts
01-Jan-18 17:40 34.338495 -118.375532 333 15010ft 292kts
01-Jan-18 17:41 34.411712 -118.418193 333 14998ft 292kts
01-Jan-18 17:42 34.484791 -118.460773 333 15045ft 291kts
01-Jan-18 17:43 34.557903 -118.502928 333 15117ft 287kts
01-Jan-18 17:44 34.625356 -118.542758 332 14997ft 257kts
01-Jan-18 17:45 34.682728 -118.580441 323 14625ft 202kts
01-Jan-18 17:46 34.726408 -118.621591 320 13493ft 213kts
01-Jan-18 17:47 34.774903 -118.670538 319 12005ft 229kts
01-Jan-18 17:48 34.823802 -118.720404 319 11495ft 230kts
01-Jan-18 17:49 34.872836 -118.770530 319 11494ft 229kts
01-Jan-18 17:50 34.920229 -118.818978 319 11267ft 211kts
01-Jan-18 17:51 34.967239 -118.857971 346 10770ft 201kts
01-Jan-18 17:52 35.021310 -118.861501 358 9954ft 191kts
01-Jan-18 17:53 35.077287 -118.861485 358 8991ft 210kts
01-Jan-18 17:54 35.137221 -118.861481 359 7992ft 214kts
01-Jan-18 17:55 35.194873 -118.861522 358 6991ft 199kts
01-Jan-18 17:56 35.247841 -118.861485 358 6057ft 184kts
01-Jan-18 17:57 35.292599 -118.886371 316 5068ft 171kts
01-Jan-18 17:58 35.329555 -118.929879 313 3913ft 190kts
01-Jan-18 17:59 35.365384 -118.973954 315 2823ft 172kts
01-Jan-18 18:00 35.395814 -119.009648 311 1653ft 144kts
01-Jan-18 18:01 35.420853 -119.040216 312 769ft 123kts
01-Jan-18 18:02 35.438550 -119.061880 314 512ft 29kts
01-Jan-18 18:03 35.441074 -119.063223 3 512ft 11kts
01-Jan-18 18:04 35.438727 -119.059569 136 512ft 25kts
01-Jan-18 18:05 35.434413 -119.054314 78 512ft 12kts
01-Jan-18 18:06 35.436320 -119.051349 35 512ft 0kts

Navigation Log

Ident Type
Flight plan parsing failed, navigation log unavailable